Minneapolis (MSP/KMSP)

Information

Location
Minneapolis, MN
Local Time
17:27 / 5:27 pm
GMT Time
22:27 / 10:27 pm
Gates
Unassigned
No FAA reported delays
METAR KMSP 272153Z 03008KT 10SM SCT060 BKN085 BKN250 14/M02 A2994 RMK AO2 SLP142 T01441017
TAF KMSP 272055Z 2721/2824 02007KT P6SM SCT060 BKN250 FM281000 06004KT 4SM BR SCT250 FM281300 06005KT P6SM FEW250
  • No charts available